createdAt,value
2019-01-31T00:00:30.809Z,-2.405701
2019-01-31T00:01:40.323Z,-2.445984
2019-01-31T00:02:49.828Z,-2.52655
2019-01-31T00:03:59.348Z,-2.586975
2019-01-31T00:05:08.867Z,-2.627258
2019-01-31T00:06:18.373Z,-2.687683
2019-01-31T00:07:27.887Z,-2.727966
2019-01-31T00:08:45.413Z,-2.77832
2019-01-31T00:09:46.916Z,-2.828674
2019-01-31T00:10:56.430Z,-2.909241
2019-01-31T00:12:05.945Z,-2.939453
2019-01-31T00:13:15.461Z,-2.989807
2019-01-31T00:14:24.990Z,-3.070374
2019-01-31T00:15:34.499Z,-3.161011
2019-01-31T00:16:44.012Z,-3.231506
2019-01-31T00:17:53.536Z,-3.28186
2019-01-31T00:19:03.065Z,-3.332214
2019-01-31T00:20:12.581Z,-3.342285
2019-01-31T00:21:22.084Z,-3.382568
2019-01-31T00:22:31.597Z,-3.412781
2019-01-31T00:23:41.110Z,-3.483276
2019-01-31T00:24:50.659Z,-3.463135
2019-01-31T00:26:00.172Z,-3.463135
2019-01-31T00:27:09.701Z,-3.463135
2019-01-31T00:28:19.208Z,-3.483276
2019-01-31T00:29:28.722Z,-3.463135
2019-01-31T00:30:38.235Z,-3.493347
2019-01-31T00:31:47.749Z,-3.493347
2019-01-31T00:32:57.267Z,-3.493347
2019-01-31T00:34:06.801Z,-3.513489
2019-01-31T00:35:16.314Z,-3.52356
2019-01-31T00:36:25.824Z,-3.543701
2019-01-31T00:37:35.331Z,-3.553772
2019-01-31T00:38:44.849Z,-3.553772
2019-01-31T00:39:55.332Z,-3.614197
2019-01-31T00:41:04.840Z,-3.664551
2019-01-31T00:42:14.362Z,-3.674622
2019-01-31T00:43:23.884Z,-3.694763
2019-01-31T00:44:33.391Z,-3.704834
2019-01-31T00:45:42.903Z,-3.704834
2019-01-31T00:46:52.404Z,-3.704834
2019-01-31T00:48:01.937Z,-3.724976
2019-01-31T00:49:11.495Z,-3.765259
2019-01-31T00:50:21.006Z,-3.765259
2019-01-31T00:51:30.555Z,-3.765259
2019-01-31T00:52:40.068Z,-3.77533
2019-01-31T00:53:49.589Z,-3.745117
2019-01-31T00:55:00.093Z,-3.735046
2019-01-31T00:56:09.600Z,-3.735046
2019-01-31T00:57:19.125Z,-3.724976
2019-01-31T00:58:28.638Z,-3.724976
2019-01-31T00:59:38.152Z,-3.724976
2019-01-31T01:00:47.680Z,-3.674622
2019-01-31T01:01:57.183Z,-3.634338
2019-01-31T01:03:06.677Z,-3.634338
2019-01-31T01:04:16.261Z,-3.583984
2019-01-31T01:05:25.771Z,-3.563843
2019-01-31T01:06:35.288Z,-3.543701
2019-01-31T01:07:44.799Z,-3.543701
2019-01-31T01:08:54.313Z,-3.513489
2019-01-31T01:10:04.800Z,-3.483276
2019-01-31T01:11:14.309Z,-3.483276
2019-01-31T01:12:23.816Z,-3.483276
2019-01-31T01:13:33.326Z,-3.463135
2019-01-31T01:14:42.842Z,-3.493347
2019-01-31T01:15:52.343Z,-3.493347
2019-01-31T01:17:01.853Z,-3.493347
2019-01-31T01:18:11.363Z,-3.513489
2019-01-31T01:19:20.887Z,-3.553772
2019-01-31T01:20:30.381Z,-3.583984
2019-01-31T01:21:39.937Z,-3.594055
2019-01-31T01:22:49.411Z,-3.634338
2019-01-31T01:23:58.924Z,-3.644409
2019-01-31T01:25:08.420Z,-3.644409
2019-01-31T01:26:17.933Z,-3.664551
2019-01-31T01:27:27.443Z,-3.674622
2019-01-31T01:28:36.962Z,-3.674622
2019-01-31T01:29:46.497Z,-3.704834
2019-01-31T01:30:55.996Z,-3.704834
2019-01-31T01:32:05.521Z,-3.724976
2019-01-31T01:33:15.029Z,-3.694763
2019-01-31T01:34:24.552Z,-3.694763
2019-01-31T01:35:34.059Z,-3.674622
2019-01-31T01:36:43.578Z,-3.644409
2019-01-31T01:37:53.083Z,-3.644409
2019-01-31T01:39:02.629Z,-3.644409
2019-01-31T01:40:13.112Z,-3.644409
2019-01-31T01:41:22.619Z,-3.664551
2019-01-31T01:42:32.123Z,-3.704834
2019-01-31T01:43:41.660Z,-3.745117
2019-01-31T01:44:51.162Z,-3.825684
2019-01-31T01:46:00.685Z,-3.876038
2019-01-31T01:47:10.194Z,-3.946533
2019-01-31T01:48:20.699Z,-3.976746
2019-01-31T01:49:30.219Z,-4.0271
2019-01-31T01:50:39.739Z,-4.087524
2019-01-31T01:51:49.264Z,-4.117737
2019-01-31T01:52:58.763Z,-4.15802
2019-01-31T01:54:08.289Z,-4.208374
2019-01-31T01:55:17.847Z,-4.218445
2019-01-31T01:56:27.307Z,-4.238586
2019-01-31T01:57:36.816Z,-4.27887
2019-01-31T01:58:46.356Z,-4.27887
2019-01-31T01:59:55.893Z,-4.27887
2019-01-31T02:01:05.400Z,-4.299011
2019-01-31T02:02:15.024Z,-4.309082
2019-01-31T02:03:24.529Z,-4.319153
2019-01-31T02:04:34.048Z,-4.339294
2019-01-31T02:05:43.560Z,-4.389648
2019-01-31T02:06:53.156Z,-4.429932
2019-01-31T02:08:02.669Z,-4.450073
2019-01-31T02:09:12.187Z,-4.450073
2019-01-31T02:10:22.685Z,-4.480286
2019-01-31T02:11:32.207Z,-4.490356
2019-01-31T02:12:41.720Z,-4.490356
2019-01-31T02:13:51.241Z,-4.500427
2019-01-31T02:15:00.788Z,-4.480286
2019-01-31T02:16:10.306Z,-4.520569
2019-01-31T02:17:19.826Z,-4.490356
2019-01-31T02:18:29.352Z,-4.480286
2019-01-31T02:19:38.873Z,-4.480286
2019-01-31T02:20:48.377Z,-4.460144
2019-01-31T02:21:57.885Z,-4.450073
2019-01-31T02:23:07.391Z,-4.419861
2019-01-31T02:24:16.914Z,-4.389648
2019-01-31T02:25:26.428Z,-4.379578
2019-01-31T02:26:35.962Z,-4.379578
2019-01-31T02:27:45.471Z,-4.389648
2019-01-31T02:28:55.020Z,-4.389648
2019-01-31T02:30:04.544Z,-4.419861
2019-01-31T02:31:14.041Z,-4.450073
2019-01-31T02:32:23.547Z,-4.480286
2019-01-31T02:33:33.052Z,-4.520569
2019-01-31T02:34:42.584Z,-4.570923
2019-01-31T02:35:52.100Z,-4.611206
2019-01-31T02:37:01.606Z,-4.641418
2019-01-31T02:38:11.112Z,-4.671631
2019-01-31T02:39:20.665Z,-4.711914
2019-01-31T02:40:30.171Z,-4.772339
2019-01-31T02:41:39.697Z,-4.732056
2019-01-31T02:42:50.265Z,-4.732056
2019-01-31T02:43:59.871Z,-4.691772
2019-01-31T02:45:09.453Z,-4.701843
2019-01-31T02:46:18.958Z,-4.671631
2019-01-31T02:47:28.478Z,-4.671631
2019-01-31T02:48:38.001Z,-4.671631
2019-01-31T02:49:47.547Z,-4.711914
2019-01-31T02:50:57.047Z,-4.752197
2019-01-31T02:52:06.570Z,-4.79248
2019-01-31T02:53:16.083Z,-4.812622
2019-01-31T02:54:25.604Z,-4.842834
2019-01-31T02:55:35.113Z,-4.883118
2019-01-31T02:56:44.627Z,-4.91333
2019-01-31T02:57:54.134Z,-4.953613
2019-01-31T02:59:03.660Z,-4.963684
2019-01-31T03:00:13.181Z,-4.983826
2019-01-31T03:01:22.692Z,-4.983826
2019-01-31T03:02:32.209Z,-4.953613
2019-01-31T03:03:41.770Z,-4.963684
2019-01-31T03:04:51.263Z,-4.953613
2019-01-31T03:06:00.768Z,-4.923401
2019-01-31T03:07:10.277Z,-4.91333
2019-01-31T03:08:19.782Z,-4.91333
2019-01-31T03:09:29.318Z,-4.883118
2019-01-31T03:10:39.389Z,-4.852905
2019-01-31T03:11:49.326Z,-4.842834
2019-01-31T03:12:58.828Z,-4.873047
2019-01-31T03:14:10.101Z,-4.883118
2019-01-31T03:15:17.844Z,-4.923401
2019-01-31T03:16:27.349Z,-4.963684
2019-01-31T03:17:36.866Z,-5.024109
2019-01-31T03:18:46.392Z,-5.064392
2019-01-31T03:19:55.894Z,-5.084534
2019-01-31T03:21:05.415Z,-5.064392
2019-01-31T03:22:14.937Z,-5.084534
2019-01-31T03:23:24.453Z,-5.03418
2019-01-31T03:24:33.993Z,-5.03418
2019-01-31T03:25:43.497Z,-5.003967
2019-01-31T03:26:53.015Z,-5.003967
2019-01-31T03:28:02.527Z,-5.003967
2019-01-31T03:29:12.049Z,-4.993896
2019-01-31T03:30:24.708Z,-4.993896
2019-01-31T03:31:31.043Z,-5.024109
2019-01-31T03:32:41.355Z,-5.03418
2019-01-31T03:33:50.862Z,-5.084534
2019-01-31T03:35:00.434Z,-5.094604
2019-01-31T03:36:09.873Z,-5.144958
2019-01-31T03:37:19.379Z,-5.205383
2019-01-31T03:38:28.911Z,-5.245667
2019-01-31T03:39:38.436Z,-5.245667
2019-01-31T03:40:47.939Z,-5.28595
2019-01-31T03:41:57.453Z,-5.28595
2019-01-31T03:43:06.966Z,-5.326233
2019-01-31T03:44:16.602Z,-5.326233
2019-01-31T03:45:26.006Z,-5.306091
2019-01-31T03:46:35.505Z,-5.275879
2019-01-31T03:47:45.019Z,-5.265808
2019-01-31T03:48:54.530Z,-5.245667
2019-01-31T03:50:06.748Z,-5.245667
2019-01-31T03:51:13.560Z,-5.265808
2019-01-31T03:52:23.076Z,-5.265808
2019-01-31T03:53:32.590Z,-5.275879
2019-01-31T03:54:42.100Z,-5.28595
2019-01-31T03:55:51.626Z,-5.306091
2019-01-31T03:57:01.130Z,-5.346375
2019-01-31T03:58:10.645Z,-5.326233
2019-01-31T03:59:20.163Z,-5.326233
2019-01-31T04:00:29.676Z,-5.326233
2019-01-31T04:01:39.255Z,-5.306091
2019-01-31T04:02:48.773Z,-5.346375
2019-01-31T04:03:58.280Z,-5.346375
2019-01-31T04:05:07.811Z,-5.346375
2019-01-31T04:06:17.316Z,-5.346375
2019-01-31T04:07:26.833Z,-5.326233
2019-01-31T04:08:36.334Z,-5.306091
2019-01-31T04:09:45.864Z,-5.28595
2019-01-31T04:10:55.379Z,-5.306091
2019-01-31T04:12:04.901Z,-5.326233
2019-01-31T04:13:14.418Z,-5.356445
2019-01-31T04:14:27.014Z,-5.376587
2019-01-31T04:15:33.457Z,-5.396729
2019-01-31T04:16:42.970Z,-5.447083
2019-01-31T04:17:53.473Z,-5.507507
2019-01-31T04:19:03.006Z,-5.507507
2019-01-31T04:20:12.531Z,-5.567932
2019-01-31T04:21:22.033Z,-5.567932
2019-01-31T04:22:31.566Z,-5.567932
2019-01-31T04:23:41.083Z,-5.567932
2019-01-31T04:24:50.609Z,-5.557861
2019-01-31T04:26:00.134Z,-5.557861
2019-01-31T04:27:10.631Z,-5.557861
2019-01-31T04:28:20.143Z,-5.578003
2019-01-31T04:29:30.672Z,-5.598145
2019-01-31T04:30:40.203Z,-5.567932
2019-01-31T04:31:49.709Z,-5.578003
2019-01-31T04:32:59.209Z,-5.598145
2019-01-31T04:34:08.738Z,-5.628357
2019-01-31T04:35:18.264Z,-5.658569
2019-01-31T04:36:27.779Z,-5.66864
2019-01-31T04:37:37.300Z,-5.739136
2019-01-31T04:38:46.813Z,-5.779419
2019-01-31T04:39:56.344Z,-5.819702
2019-01-31T04:41:05.845Z,-5.859985
2019-01-31T04:42:15.357Z,-5.950623
2019-01-31T04:43:24.871Z,-5.990906
2019-01-31T04:44:34.439Z,-6.071472
2019-01-31T04:45:43.955Z,-6.111755
2019-01-31T04:46:53.473Z,-6.111755
2019-01-31T04:48:02.986Z,-6.111755
2019-01-31T04:49:12.528Z,-6.111755
2019-01-31T04:50:22.043Z,-6.111755
2019-01-31T04:51:31.562Z,-6.152039
2019-01-31T04:52:41.072Z,-6.111755
2019-01-31T04:53:50.578Z,-6.051331
2019-01-31T04:55:00.193Z,-5.990906
2019-01-31T04:56:09.604Z,-5.890198
2019-01-31T04:57:19.195Z,-5.809631
2019-01-31T04:58:28.711Z,-5.739136
2019-01-31T04:59:38.218Z,-5.66864
2019-01-31T05:00:47.741Z,-5.638428
2019-01-31T05:01:57.257Z,-5.66864
2019-01-31T05:03:06.765Z,-5.708923
2019-01-31T05:04:16.279Z,-5.739136
2019-01-31T05:05:25.829Z,-5.708923
2019-01-31T05:06:35.337Z,-5.678711
2019-01-31T05:07:44.960Z,-5.66864
2019-01-31T05:08:54.520Z,-5.678711
2019-01-31T05:10:03.991Z,-5.749207
2019-01-31T05:11:13.516Z,-5.809631
2019-01-31T05:12:23.028Z,-5.839844
2019-01-31T05:13:32.538Z,-5.839844
2019-01-31T05:14:42.049Z,-5.859985
2019-01-31T05:15:51.583Z,-5.92041
2019-01-31T05:17:02.097Z,-6.021118
2019-01-31T05:18:11.751Z,-6.031189
2019-01-31T05:19:21.133Z,-6.051331
2019-01-31T05:20:30.654Z,-6.051331
2019-01-31T05:21:40.179Z,-6.101685
2019-01-31T05:22:49.690Z,-6.141968
2019-01-31T05:23:59.216Z,-6.152039
2019-01-31T05:25:08.733Z,-6.182251
2019-01-31T05:26:18.291Z,-6.182251
2019-01-31T05:27:27.805Z,-6.212463
2019-01-31T05:28:37.347Z,-6.232605
2019-01-31T05:29:46.867Z,-6.282959
2019-01-31T05:30:56.417Z,-6.353455
2019-01-31T05:32:05.937Z,-6.464233
2019-01-31T05:33:15.844Z,-6.5448
2019-01-31T05:34:26.481Z,-6.595154
2019-01-31T05:35:36.307Z,-6.655579
2019-01-31T05:36:46.106Z,-6.645508
2019-01-31T05:37:55.629Z,-6.595154
2019-01-31T05:39:05.138Z,-6.605225
2019-01-31T05:40:14.671Z,-6.625366
2019-01-31T05:41:24.183Z,-6.625366
2019-01-31T05:42:33.687Z,-6.685791
2019-01-31T05:43:43.196Z,-6.736145
2019-01-31T05:44:52.710Z,-6.746216
2019-01-31T05:46:03.059Z,-6.786499
2019-01-31T05:47:12.590Z,-6.836853
2019-01-31T05:48:22.101Z,-6.826782
2019-01-31T05:49:31.667Z,-6.836853
2019-01-31T05:50:41.305Z,-6.826782
2019-01-31T05:51:51.085Z,-6.806641
2019-01-31T05:53:00.620Z,-6.756287
2019-01-31T05:54:10.141Z,-6.67572
2019-01-31T05:55:19.644Z,-6.605225
2019-01-31T05:56:29.170Z,-6.504517
2019-01-31T05:57:38.703Z,-6.42395
2019-01-31T05:58:48.229Z,-6.383667
2019-01-31T05:59:57.739Z,-6.353455
2019-01-31T06:01:07.261Z,-6.343384
2019-01-31T06:02:16.769Z,-6.242676
2019-01-31T06:03:26.277Z,-5.990906
2019-01-31T06:04:35.790Z,-5.819702
2019-01-31T06:05:45.307Z,-5.718994
2019-01-31T06:06:54.829Z,-5.628357
2019-01-31T06:08:05.318Z,-5.638428
2019-01-31T06:09:14.824Z,-5.678711
2019-01-31T06:10:24.351Z,-5.759277
2019-01-31T06:11:34.855Z,-5.819702
2019-01-31T06:12:44.360Z,-5.839844
2019-01-31T06:13:53.877Z,-5.900269
2019-01-31T06:15:03.386Z,-5.960693
2019-01-31T06:16:12.915Z,-5.990906
2019-01-31T06:17:22.429Z,-6.021118
2019-01-31T06:18:32.032Z,-6.031189
2019-01-31T06:19:41.543Z,-6.031189
2019-01-31T06:20:51.071Z,-6.081543
2019-01-31T06:22:00.586Z,-6.141968
2019-01-31T06:23:10.099Z,-6.182251
2019-01-31T06:24:19.611Z,-6.202393
2019-01-31T06:25:29.144Z,-6.232605
2019-01-31T06:26:38.669Z,-6.242676
2019-01-31T06:27:48.189Z,-6.242676
2019-01-31T06:28:57.701Z,-6.232605
2019-01-31T06:30:07.224Z,-6.242676
2019-01-31T06:31:16.956Z,-6.202393
2019-01-31T06:32:26.560Z,-6.131897
2019-01-31T06:33:36.430Z,-6.101685
2019-01-31T06:34:46.002Z,-5.990906
2019-01-31T06:35:55.534Z,-5.930481
2019-01-31T06:37:05.047Z,-5.930481
2019-01-31T06:38:14.565Z,-5.92041
2019-01-31T06:39:24.077Z,-5.92041
2019-01-31T06:40:33.701Z,-5.930481
2019-01-31T06:41:43.110Z,-5.950623
2019-01-31T06:42:52.630Z,-5.970764
2019-01-31T06:44:02.141Z,-5.990906
2019-01-31T06:45:11.670Z,-6.021118
2019-01-31T06:46:21.198Z,-6.101685
2019-01-31T06:47:30.838Z,-6.17218
2019-01-31T06:48:41.043Z,-6.212463
2019-01-31T06:49:50.569Z,-6.282959
2019-01-31T06:51:00.144Z,-6.383667
2019-01-31T06:52:09.691Z,-6.393738
2019-01-31T06:53:19.245Z,-6.413879
2019-01-31T06:54:28.819Z,-6.42395
2019-01-31T06:55:38.426Z,-6.474304
2019-01-31T06:56:47.972Z,-6.42395
2019-01-31T06:57:57.516Z,-6.444092
2019-01-31T06:59:08.022Z,-6.474304
2019-01-31T07:00:17.576Z,-6.524658
2019-01-31T07:01:27.186Z,-6.5448
2019-01-31T07:02:36.733Z,-6.5448
2019-01-31T07:03:46.331Z,-6.595154
2019-01-31T07:04:55.886Z,-6.605225
2019-01-31T07:06:05.432Z,-6.655579
2019-01-31T07:07:14.966Z,-6.705933
2019-01-31T07:08:24.517Z,-6.685791
2019-01-31T07:09:34.050Z,-6.645508
2019-01-31T07:10:43.592Z,-6.595154
2019-01-31T07:11:53.169Z,-6.524658
2019-01-31T07:13:02.699Z,-6.393738
2019-01-31T07:14:12.241Z,-6.282959
2019-01-31T07:15:21.813Z,-6.202393
2019-01-31T07:16:31.379Z,-6.081543
2019-01-31T07:17:40.934Z,-5.970764
2019-01-31T07:18:50.497Z,-5.839844
2019-01-31T07:20:00.091Z,-5.66864
2019-01-31T07:21:09.645Z,-5.53772
2019-01-31T07:22:19.231Z,-5.376587
2019-01-31T07:23:28.764Z,-5.185242
2019-01-31T07:24:38.332Z,-5.024109
2019-01-31T07:25:47.861Z,-4.842834
2019-01-31T07:26:57.551Z,-4.671631
2019-01-31T07:28:07.068Z,-4.490356
2019-01-31T07:29:16.614Z,-4.319153
2019-01-31T07:30:26.771Z,-4.168091
2019-01-31T07:31:35.729Z,-4.017029
2019-01-31T07:32:45.281Z,-3.90625
2019-01-31T07:33:54.820Z,-3.77533
2019-01-31T07:35:04.346Z,-3.614197
2019-01-31T07:36:14.004Z,-3.412781
2019-01-31T07:37:23.445Z,-3.171082
2019-01-31T07:38:33.001Z,-3.040161
2019-01-31T07:39:42.558Z,-2.858887
2019-01-31T07:40:52.088Z,-2.727966
2019-01-31T07:42:01.625Z,-2.586975
2019-01-31T07:43:11.161Z,-2.466125
2019-01-31T07:44:20.704Z,-2.345276
2019-01-31T07:45:30.253Z,-2.133789
2019-01-31T07:46:39.795Z,-2.012939
2019-01-31T07:47:49.324Z,-1.861877
2019-01-31T07:48:58.850Z,-1.720886
2019-01-31T07:50:08.380Z,-1.610107
2019-01-31T07:51:17.905Z,-1.469116
2019-01-31T07:52:27.440Z,-1.328125
2019-01-31T07:53:37.695Z,-1.197205
2019-01-31T07:54:47.230Z,-1.086426
2019-01-31T07:55:56.758Z,-0.985718
2019-01-31T07:57:06.317Z,-0.965576
2019-01-31T07:58:15.864Z,-0.925293
2019-01-31T07:59:25.419Z,-1.036072
2019-01-31T08:00:34.977Z,-0.965576
2019-01-31T08:01:44.554Z,-0.854797
2019-01-31T08:02:54.101Z,-0.723877
2019-01-31T08:04:03.630Z,-0.613098
2019-01-31T08:05:13.147Z,-0.462036
2019-01-31T08:06:22.692Z,-0.341187
2019-01-31T08:07:32.258Z,-0.200195
2019-01-31T08:08:41.774Z,-0.069275
2019-01-31T08:09:51.298Z,0.041504
2019-01-31T08:11:00.812Z,0.12207
2019-01-31T08:12:11.365Z,0.162354
2019-01-31T08:13:20.909Z,0.283203
2019-01-31T08:14:30.437Z,0.414124
2019-01-31T08:15:39.962Z,0.545044
2019-01-31T08:16:49.501Z,0.524902
2019-01-31T08:17:59.019Z,0.645752
2019-01-31T08:19:08.551Z,0.776672
2019-01-31T08:20:18.086Z,0.907593
2019-01-31T08:21:27.608Z,1.018372
2019-01-31T08:22:37.154Z,1.159363
2019-01-31T08:23:46.672Z,1.12915
2019-01-31T08:24:56.190Z,1.239929
2019-01-31T08:26:05.702Z,1.320496
2019-01-31T08:27:15.224Z,1.441345
2019-01-31T08:28:24.742Z,1.602478
2019-01-31T08:29:34.266Z,1.713257
2019-01-31T08:30:43.788Z,1.763611
2019-01-31T08:31:53.329Z,1.763611
2019-01-31T08:33:02.852Z,1.713257
2019-01-31T08:34:12.388Z,1.662903
2019-01-31T08:35:21.917Z,1.602478
2019-01-31T08:36:31.440Z,1.672974
2019-01-31T08:37:40.983Z,1.703186
2019-01-31T08:38:50.499Z,1.713257
2019-01-31T08:40:00.029Z,1.683044
2019-01-31T08:41:09.554Z,1.63269
2019-01-31T08:42:19.106Z,1.582336
2019-01-31T08:43:28.620Z,1.50177
2019-01-31T08:44:38.251Z,1.38092
2019-01-31T08:45:47.666Z,1.411133
2019-01-31T08:46:57.215Z,1.38092
2019-01-31T08:48:06.743Z,1.38092
2019-01-31T08:49:16.259Z,1.320496
2019-01-31T08:50:27.588Z,1.340637
2019-01-31T08:51:35.302Z,1.229858
2019-01-31T08:52:45.847Z,1.239929
2019-01-31T08:53:55.372Z,1.401062
2019-01-31T08:55:04.924Z,1.552124
2019-01-31T08:56:14.455Z,1.662903
2019-01-31T08:57:23.988Z,1.813965
2019-01-31T08:58:34.507Z,1.783752
2019-01-31T08:59:44.026Z,1.844177
2019-01-31T09:00:53.549Z,1.924744
2019-01-31T09:02:03.136Z,2.065735
2019-01-31T09:03:13.593Z,2.247009
2019-01-31T09:04:23.116Z,2.37793
2019-01-31T09:05:32.649Z,2.438354
2019-01-31T09:06:42.176Z,2.599487
2019-01-31T09:07:51.732Z,2.619629
2019-01-31T09:09:01.263Z,2.649841
2019-01-31T09:10:10.779Z,2.750549
2019-01-31T09:11:20.303Z,2.821045
2019-01-31T09:12:29.836Z,2.851257
2019-01-31T09:13:39.362Z,2.891541
2019-01-31T09:14:48.895Z,2.951965
2019-01-31T09:15:58.424Z,2.921753
2019-01-31T09:17:07.974Z,3.002319
2019-01-31T09:18:17.496Z,3.01239
2019-01-31T09:19:27.031Z,3.042603
2019-01-31T09:20:36.570Z,3.072815
2019-01-31T09:21:46.096Z,3.042603
2019-01-31T09:22:55.630Z,3.032532
2019-01-31T09:24:05.155Z,2.972107
2019-01-31T09:25:14.689Z,2.871399
2019-01-31T09:26:24.218Z,2.891541
2019-01-31T09:27:33.755Z,2.800903
2019-01-31T09:28:43.280Z,2.790833
2019-01-31T09:29:54.236Z,2.861328
2019-01-31T09:31:02.336Z,2.982178
2019-01-31T09:32:11.890Z,3.13324
2019-01-31T09:33:21.420Z,3.254089
2019-01-31T09:34:30.944Z,3.324585
2019-01-31T09:35:40.473Z,3.405151
2019-01-31T09:36:49.996Z,3.546143
2019-01-31T09:37:59.533Z,3.727417
2019-01-31T09:39:09.045Z,3.777771
2019-01-31T09:40:18.652Z,3.948975
2019-01-31T09:41:28.096Z,4.170532
2019-01-31T09:42:37.653Z,4.301453
2019-01-31T09:43:47.170Z,4.402161
2019-01-31T09:44:56.717Z,4.422302
2019-01-31T09:46:06.244Z,4.563293
2019-01-31T09:47:15.766Z,4.563293
2019-01-31T09:48:25.331Z,4.533081
2019-01-31T09:49:34.853Z,4.553223
2019-01-31T09:50:44.369Z,4.553223
2019-01-31T09:51:53.896Z,4.674072
2019-01-31T09:53:03.449Z,4.815063
2019-01-31T09:54:12.969Z,4.996338
2019-01-31T09:55:22.477Z,5.036621
2019-01-31T09:56:34.708Z,5.137329
2019-01-31T09:57:41.546Z,5.248108
2019-01-31T09:58:51.064Z,5.227966
2019-01-31T10:00:00.720Z,5.288391
2019-01-31T10:01:10.124Z,5.389099
2019-01-31T10:02:19.655Z,5.469666
2019-01-31T10:03:29.198Z,5.570374
2019-01-31T10:04:38.718Z,5.661011
2019-01-31T10:05:48.236Z,5.791931
2019-01-31T10:06:57.757Z,5.892639
2019-01-31T10:08:07.280Z,5.761719
2019-01-31T10:09:16.804Z,5.570374
2019-01-31T10:10:26.352Z,5.479736
2019-01-31T10:11:35.858Z,5.469666
2019-01-31T10:12:45.432Z,5.409241
2019-01-31T10:13:54.953Z,5.469666
2019-01-31T10:15:04.421Z,5.509949
2019-01-31T10:16:13.930Z,5.469666
2019-01-31T10:17:23.532Z,5.53009
2019-01-31T10:18:32.994Z,5.540161
2019-01-31T10:19:42.539Z,5.65094
2019-01-31T10:20:52.097Z,5.761719
2019-01-31T10:22:01.602Z,5.932922
2019-01-31T10:23:11.101Z,6.053772
2019-01-31T10:24:20.628Z,6.204834
2019-01-31T10:25:30.172Z,6.194763
2019-01-31T10:26:39.679Z,6.073914
2019-01-31T10:27:49.212Z,5.802002
2019-01-31T10:28:58.742Z,5.620728
2019-01-31T10:30:08.270Z,5.499878
2019-01-31T10:31:17.784Z,5.53009
2019-01-31T10:32:27.334Z,5.429382
2019-01-31T10:33:36.862Z,5.459595
2019-01-31T10:34:46.373Z,5.610657
2019-01-31T10:35:55.893Z,5.570374
2019-01-31T10:37:06.421Z,5.711365
2019-01-31T10:38:15.958Z,5.832214
2019-01-31T10:39:25.474Z,5.872498
2019-01-31T10:40:35.979Z,5.973206
2019-01-31T10:41:45.500Z,5.973206
2019-01-31T10:42:55.024Z,6.013489
2019-01-31T10:44:04.636Z,6.114197
2019-01-31T10:45:14.149Z,6.255188
2019-01-31T10:46:24.644Z,6.305542
2019-01-31T10:47:34.173Z,6.295471
2019-01-31T10:48:43.730Z,6.376038
2019-01-31T10:49:53.205Z,6.305542
2019-01-31T10:51:02.727Z,6.305542
2019-01-31T10:52:12.254Z,6.355896
2019-01-31T10:53:21.796Z,6.386108
2019-01-31T10:54:31.312Z,6.446533
2019-01-31T10:55:40.832Z,6.53717
2019-01-31T10:56:50.352Z,6.627808
2019-01-31T10:57:59.888Z,6.53717
2019-01-31T10:59:09.412Z,6.386108
2019-01-31T11:00:18.932Z,6.567383
2019-01-31T11:01:28.454Z,6.53717
2019-01-31T11:02:37.989Z,6.013489
2019-01-31T11:03:48.486Z,5.590515
2019-01-31T11:04:57.999Z,5.661011
2019-01-31T11:06:07.519Z,5.892639
2019-01-31T11:07:17.070Z,6.164551
2019-01-31T11:08:26.595Z,6.386108
2019-01-31T11:09:36.118Z,6.65802
2019-01-31T11:10:45.636Z,6.839294
2019-01-31T11:11:55.153Z,6.768799
2019-01-31T11:13:04.679Z,6.114197
2019-01-31T11:14:14.199Z,5.912781
2019-01-31T11:15:23.800Z,6.124268
2019-01-31T11:16:33.254Z,6.446533
2019-01-31T11:17:42.807Z,6.65802
2019-01-31T11:18:52.332Z,6.919861
2019-01-31T11:20:02.826Z,7.201843
2019-01-31T11:21:12.345Z,7.322693
2019-01-31T11:22:21.872Z,6.879578
2019-01-31T11:23:31.402Z,6.02356
2019-01-31T11:24:40.924Z,5.348816
2019-01-31T11:25:50.441Z,5.097046
2019-01-31T11:27:00.023Z,4.915771
2019-01-31T11:28:09.535Z,4.986267
2019-01-31T11:29:19.041Z,5.258179
2019-01-31T11:30:28.542Z,5.53009
2019-01-31T11:31:38.062Z,5.469666
2019-01-31T11:32:47.566Z,5.620728
2019-01-31T11:33:57.136Z,5.932922
2019-01-31T11:35:06.636Z,6.094055
2019-01-31T11:36:16.167Z,6.355896
2019-01-31T11:37:25.668Z,6.668091
2019-01-31T11:38:35.215Z,6.738586
2019-01-31T11:39:44.729Z,6.819153
2019-01-31T11:40:54.242Z,6.919861
2019-01-31T11:42:03.759Z,6.809082
2019-01-31T11:43:13.296Z,6.819153
2019-01-31T11:44:22.805Z,6.950073
2019-01-31T11:45:32.337Z,7.070923
2019-01-31T11:46:41.841Z,7.060852
2019-01-31T11:47:51.345Z,7.111206
2019-01-31T11:49:00.915Z,6.919861
2019-01-31T11:50:10.426Z,7.000427
2019-01-31T11:51:19.936Z,7.101135
2019-01-31T11:52:29.450Z,7.29248
2019-01-31T11:53:39.001Z,7.53418
2019-01-31T11:54:48.507Z,7.28241
2019-01-31T11:55:58.023Z,7.483826
2019-01-31T11:57:07.540Z,7.6651
2019-01-31T11:58:17.073Z,7.383118
2019-01-31T11:59:26.574Z,7.000427
2019-01-31T12:00:36.085Z,6.506958
2019-01-31T12:01:45.680Z,6.748657
2019-01-31T12:02:55.427Z,7.211914
2019-01-31T12:04:04.733Z,7.503967
2019-01-31T12:05:14.251Z,7.755737
2019-01-31T12:06:23.757Z,7.876587
2019-01-31T12:07:33.269Z,7.937012
2019-01-31T12:08:42.793Z,8.088074
2019-01-31T12:09:52.311Z,7.866516
2019-01-31T12:11:01.821Z,6.919861
2019-01-31T12:12:11.330Z,6.819153
2019-01-31T12:13:23.433Z,7.050781
2019-01-31T12:14:30.398Z,7.483826
2019-01-31T12:15:39.916Z,7.715454
2019-01-31T12:16:49.427Z,7.876587
2019-01-31T12:17:58.944Z,7.896729
2019-01-31T12:19:08.469Z,7.816162
2019-01-31T12:20:18.013Z,7.614746
2019-01-31T12:21:27.536Z,7.695312
2019-01-31T12:22:37.045Z,8.057861
2019-01-31T12:23:46.567Z,8.490906
2019-01-31T12:24:56.092Z,8.954163
2019-01-31T12:26:05.604Z,9.508057
2019-01-31T12:27:15.113Z,9.467773
2019-01-31T12:28:24.670Z,9.367065
2019-01-31T12:29:34.192Z,9.276428
2019-01-31T12:30:43.717Z,9.306641
2019-01-31T12:31:53.239Z,8.551331
2019-01-31T12:33:02.754Z,8.782959
2019-01-31T12:34:12.314Z,9.034729
2019-01-31T12:35:21.840Z,9.387207
2019-01-31T12:36:31.370Z,9.638977
2019-01-31T12:37:40.897Z,9.588623
2019-01-31T12:38:50.438Z,9.387207
2019-01-31T12:39:59.946Z,9.538269
2019-01-31T12:41:09.460Z,9.67926
2019-01-31T12:42:18.969Z,10.011597
2019-01-31T12:43:34.906Z,10.092163
2019-01-31T12:44:38.102Z,10.233154
2019-01-31T12:45:47.624Z,10.30365
2019-01-31T12:46:57.147Z,10.072021
2019-01-31T12:48:06.669Z,9.286499
2019-01-31T12:49:16.220Z,9.034729
2019-01-31T12:50:25.751Z,9.095154
2019-01-31T12:51:35.280Z,9.306641
2019-01-31T12:52:44.794Z,9.769897
2019-01-31T12:53:54.327Z,9.578552
2019-01-31T12:55:03.832Z,9.729614
2019-01-31T12:56:13.341Z,9.941101
2019-01-31T12:57:22.848Z,9.729614
2019-01-31T12:58:33.402Z,9.820251
2019-01-31T12:59:41.959Z,10.092163
2019-01-31T13:00:51.451Z,10.374146
2019-01-31T13:02:00.970Z,10.192871
2019-01-31T13:03:10.499Z,10.494995
2019-01-31T13:04:20.547Z,10.92804
2019-01-31T13:05:29.557Z,11.099243
2019-01-31T13:06:39.095Z,11.471863
2019-01-31T13:07:48.609Z,11.602783
2019-01-31T13:08:58.158Z,11.69342
2019-01-31T13:10:07.683Z,11.904907
2019-01-31T13:11:17.202Z,11.965332
2019-01-31T13:12:26.708Z,12.015686
2019-01-31T13:13:45.829Z,11.552429
2019-01-31T13:14:46.770Z,11.401367
2019-01-31T13:15:56.271Z,11.330872
2019-01-31T13:17:05.785Z,11.44165
2019-01-31T13:18:15.317Z,11.220093
2019-01-31T13:19:24.873Z,11.371155
2019-01-31T13:20:34.391Z,11.592712
2019-01-31T13:21:43.909Z,11.653137
2019-01-31T13:22:53.440Z,11.330872
2019-01-31T13:24:02.989Z,11.139526